createdAt,value
2023-02-12T00:00:15.784Z,34.50
2023-02-12T00:01:15.737Z,32.80
2023-02-12T00:02:15.805Z,33.40
2023-02-12T00:03:15.711Z,33.80
2023-02-12T00:04:15.652Z,34.80
2023-02-12T00:05:15.635Z,34.00
2023-02-12T00:06:16.206Z,33.90
2023-02-12T00:07:15.588Z,33.50
2023-02-12T00:08:15.552Z,34.30
2023-02-12T00:09:15.527Z,35.10
2023-02-12T00:10:15.499Z,33.30
2023-02-12T00:11:15.477Z,33.40
2023-02-12T00:12:15.449Z,32.30
2023-02-12T00:13:15.438Z,34.80
2023-02-12T00:14:15.400Z,33.80
2023-02-12T00:15:15.380Z,33.20
2023-02-12T00:16:15.437Z,34.60
2023-02-12T00:17:15.316Z,34.80
2023-02-12T00:18:15.289Z,34.10
2023-02-12T00:19:15.264Z,33.30
2023-02-12T00:20:15.239Z,35.40
2023-02-12T00:21:15.229Z,33.90
2023-02-12T00:22:15.183Z,33.50
2023-02-12T00:23:15.166Z,34.00
2023-02-12T00:24:15.138Z,35.30
2023-02-12T00:25:15.126Z,34.20
2023-02-12T00:26:15.084Z,33.10
2023-02-12T00:27:15.067Z,34.40
2023-02-12T00:28:15.103Z,32.70
2023-02-12T00:29:15.039Z,33.80
2023-02-12T00:30:15.009Z,34.70
2023-02-12T00:31:15.082Z,33.60
2023-02-12T00:32:14.924Z,34.20
2023-02-12T00:33:14.911Z,34.80
2023-02-12T00:34:14.882Z,34.00
2023-02-12T00:35:14.854Z,33.70
2023-02-12T00:36:14.866Z,34.40
2023-02-12T00:37:14.802Z,34.90
2023-02-12T00:38:14.769Z,34.30
2023-02-12T00:39:14.749Z,34.70
2023-02-12T00:40:14.724Z,33.50
2023-02-12T00:41:14.695Z,34.90
2023-02-12T00:42:14.670Z,34.10
2023-02-12T00:43:14.648Z,35.00
2023-02-12T00:44:14.624Z,34.40
2023-02-12T00:45:14.616Z,34.30
2023-02-12T00:46:14.653Z,34.80
2023-02-12T00:47:14.540Z,33.80
2023-02-12T00:48:14.539Z,34.90
2023-02-12T00:49:14.492Z,34.50
2023-02-12T00:50:14.463Z,34.20
2023-02-12T00:51:14.445Z,33.80
2023-02-12T00:52:14.406Z,35.30
2023-02-12T00:53:14.385Z,34.30
2023-02-12T00:54:14.373Z,34.60
2023-02-12T00:55:14.327Z,32.80
2023-02-12T00:56:14.309Z,34.20
2023-02-12T00:57:14.281Z,35.00
2023-02-12T00:58:14.266Z,33.20
2023-02-12T00:59:14.243Z,33.80
2023-02-12T01:00:14.199Z,33.70
2023-02-12T01:01:14.245Z,34.10
2023-02-12T01:02:14.163Z,33.30
2023-02-12T01:03:14.133Z,35.00
2023-02-12T01:04:14.097Z,34.70
2023-02-12T01:05:14.165Z,34.40
2023-02-12T01:06:14.052Z,33.90
2023-02-12T01:07:14.030Z,34.60
2023-02-12T01:08:13.996Z,34.70
2023-02-12T01:09:13.985Z,33.40
2023-02-12T01:10:13.943Z,34.80
2023-02-12T01:11:13.930Z,34.00
2023-02-12T01:12:13.898Z,32.40
2023-02-12T01:13:13.889Z,32.70
2023-02-12T01:14:13.841Z,32.60
2023-02-12T01:15:13.828Z,33.00
2023-02-12T01:16:13.831Z,34.80
2023-02-12T01:17:13.797Z,33.70
2023-02-12T01:18:13.735Z,32.50
2023-02-12T01:19:13.719Z,33.30
2023-02-12T01:20:13.690Z,34.20
2023-02-12T01:21:13.671Z,33.30
2023-02-12T01:22:13.635Z,32.80
2023-02-12T01:23:13.613Z,34.10
2023-02-12T01:24:13.587Z,33.30
2023-02-12T01:25:13.557Z,32.60
2023-02-12T01:26:13.548Z,33.00
2023-02-12T01:27:13.502Z,33.60
2023-02-12T01:28:13.541Z,33.00
2023-02-12T01:29:13.455Z,34.10
2023-02-12T01:30:13.435Z,33.70
2023-02-12T01:31:13.506Z,33.90
2023-02-12T01:32:13.436Z,32.00
2023-02-12T01:33:13.370Z,34.00
2023-02-12T01:34:13.327Z,34.40
2023-02-12T01:35:13.297Z,33.10
2023-02-12T01:36:13.276Z,32.30
2023-02-12T01:37:13.248Z,34.60
2023-02-12T01:38:13.228Z,32.60
2023-02-12T01:39:13.191Z,34.00
2023-02-12T01:40:13.176Z,32.80
2023-02-12T01:41:13.138Z,34.60
2023-02-12T01:42:13.124Z,32.90
2023-02-12T01:43:13.124Z,33.40
2023-02-12T01:44:13.062Z,33.60
2023-02-12T01:45:13.059Z,32.60
2023-02-12T01:46:13.079Z,33.80
2023-02-12T01:47:12.986Z,34.00
2023-02-12T01:48:12.961Z,33.30
2023-02-12T01:49:12.979Z,33.70
2023-02-12T01:50:12.913Z,33.30
2023-02-12T01:51:12.884Z,31.90
2023-02-12T01:52:12.858Z,33.80
2023-02-12T01:53:12.835Z,33.10
2023-02-12T01:54:12.818Z,33.90
2023-02-12T01:55:12.779Z,32.90
2023-02-12T01:56:12.758Z,32.40
2023-02-12T01:57:12.743Z,32.80
2023-02-12T01:58:12.700Z,32.70
2023-02-12T01:59:12.673Z,33.10
2023-02-12T02:00:12.647Z,33.70
2023-02-12T02:01:12.618Z,31.90
2023-02-12T02:02:12.596Z,32.20
2023-02-12T02:03:12.626Z,32.50
2023-02-12T02:04:12.556Z,33.00
2023-02-12T02:05:12.544Z,33.70
2023-02-12T02:06:12.515Z,33.00
2023-02-12T02:07:12.462Z,33.60
2023-02-12T02:08:12.442Z,32.00
2023-02-12T02:09:12.417Z,32.30
2023-02-12T02:10:12.388Z,31.60
2023-02-12T02:11:12.361Z,34.50
2023-02-12T02:12:12.335Z,32.50
2023-02-12T02:13:12.305Z,31.10
2023-02-12T02:14:12.292Z,32.00
2023-02-12T02:15:12.257Z,32.80
2023-02-12T02:16:12.320Z,32.90
2023-02-12T02:17:12.227Z,32.10
2023-02-12T02:18:12.180Z,31.60
2023-02-12T02:19:12.154Z,31.30
2023-02-12T02:20:12.133Z,32.00
2023-02-12T02:21:12.133Z,33.10
2023-02-12T02:22:12.075Z,31.00
2023-02-12T02:23:12.043Z,31.40
2023-02-12T02:24:12.027Z,31.50
2023-02-12T02:25:11.990Z,31.10
2023-02-12T02:26:11.968Z,31.80
2023-02-12T02:27:11.942Z,30.60
2023-02-12T02:28:11.933Z,32.70
2023-02-12T02:29:11.890Z,32.00
2023-02-12T02:30:11.864Z,31.00
2023-02-12T02:31:12.013Z,32.40
2023-02-12T02:32:11.843Z,31.50
2023-02-12T02:33:11.786Z,32.50
2023-02-12T02:34:11.756Z,31.60
2023-02-12T02:35:11.745Z,30.60
2023-02-12T02:36:11.707Z,31.30
2023-02-12T02:37:11.709Z,30.80
2023-02-12T02:38:11.657Z,31.70
2023-02-12T02:39:11.625Z,31.30
2023-02-12T02:40:11.603Z,31.10
2023-02-12T02:41:11.572Z,30.80
2023-02-12T02:42:11.549Z,30.00
2023-02-12T02:43:11.520Z,31.50
2023-02-12T02:44:11.501Z,31.70
2023-02-12T02:45:11.499Z,30.80
2023-02-12T02:46:11.449Z,31.30
2023-02-12T02:47:11.416Z,30.60
2023-02-12T02:48:11.395Z,31.70
2023-02-12T02:49:11.370Z,31.40
2023-02-12T02:50:11.349Z,31.10
2023-02-12T02:51:11.323Z,30.40
2023-02-12T02:52:11.295Z,30.60
2023-02-12T02:53:11.288Z,30.30
2023-02-12T02:54:11.245Z,30.70
2023-02-12T02:55:11.232Z,30.50
2023-02-12T02:56:11.188Z,30.80
2023-02-12T02:57:11.159Z,30.90
2023-02-12T02:58:11.136Z,30.10
2023-02-12T02:59:11.108Z,31.70
2023-02-12T03:00:11.088Z,30.80
2023-02-12T03:01:11.156Z,30.70
2023-02-12T03:02:11.028Z,31.10
2023-02-12T03:03:11.201Z,29.50
2023-02-12T03:04:10.982Z,30.60
2023-02-12T03:05:10.957Z,31.30
2023-02-12T03:06:10.927Z,30.10
2023-02-12T03:07:10.900Z,30.90
2023-02-12T03:08:10.884Z,31.70
2023-02-12T03:09:10.873Z,30.00
2023-02-12T03:10:10.826Z,31.90
2023-02-12T03:11:10.797Z,31.30
2023-02-12T03:12:10.776Z,30.20
2023-02-12T03:13:10.749Z,30.80
2023-02-12T03:14:10.723Z,29.70
2023-02-12T03:15:10.697Z,31.80
2023-02-12T03:16:10.689Z,31.00
2023-02-12T03:17:10.638Z,30.60
2023-02-12T03:18:10.616Z,31.40
2023-02-12T03:19:10.590Z,31.60
2023-02-12T03:20:10.566Z,32.00
2023-02-12T03:21:10.538Z,32.70
2023-02-12T03:22:10.513Z,32.50
2023-02-12T03:23:10.496Z,31.00
2023-02-12T03:24:10.463Z,31.90
2023-02-12T03:25:10.466Z,31.10
2023-02-12T03:26:10.416Z,31.40
2023-02-12T03:27:10.397Z,31.50
2023-02-12T03:28:10.450Z,31.60
2023-02-12T03:29:10.367Z,30.30
2023-02-12T03:30:10.310Z,31.50
2023-02-12T03:31:10.426Z,31.20
2023-02-12T03:32:10.268Z,32.20
2023-02-12T03:33:10.295Z,30.00
2023-02-12T03:34:10.212Z,31.30
2023-02-12T03:35:10.184Z,31.60
2023-02-12T03:36:10.160Z,31.80
2023-02-12T03:37:10.127Z,30.90
2023-02-12T03:38:10.104Z,30.40
2023-02-12T03:39:10.075Z,30.80
2023-02-12T03:40:10.053Z,29.70
2023-02-12T03:41:10.051Z,31.40
2023-02-12T03:42:10.009Z,31.60
2023-02-12T03:43:09.976Z,31.20
2023-02-12T03:44:09.950Z,30.40
2023-02-12T03:45:09.923Z,31.10
2023-02-12T03:46:10.012Z,30.70
2023-02-12T03:47:09.874Z,32.50
2023-02-12T03:48:09.847Z,33.30
2023-02-12T03:49:09.819Z,33.40
2023-02-12T03:50:09.797Z,32.60
2023-02-12T03:51:09.773Z,30.80
2023-02-12T03:52:09.745Z,31.60
2023-02-12T03:53:09.717Z,31.30
2023-02-12T03:54:09.690Z,32.40
2023-02-12T03:55:09.661Z,33.30
2023-02-12T03:56:09.636Z,31.40
2023-02-12T03:57:09.629Z,31.50
2023-02-12T03:58:09.590Z,31.50
2023-02-12T03:59:09.559Z,32.50
2023-02-12T04:00:09.534Z,30.60
2023-02-12T04:01:09.581Z,32.30
2023-02-12T04:02:09.555Z,32.00
2023-02-12T04:03:09.449Z,31.00
2023-02-12T04:04:09.627Z,32.10
2023-02-12T04:05:09.408Z,31.80
2023-02-12T04:06:09.372Z,32.90
2023-02-12T04:07:09.342Z,31.30
2023-02-12T04:08:09.323Z,32.00
2023-02-12T04:09:09.304Z,32.90
2023-02-12T04:10:09.270Z,31.80
2023-02-12T04:11:09.252Z,30.80
2023-02-12T04:12:09.219Z,31.70
2023-02-12T04:13:09.213Z,31.30
2023-02-12T04:14:09.166Z,31.40
2023-02-12T04:15:09.136Z,31.70
2023-02-12T04:16:09.125Z,31.80
2023-02-12T04:17:09.082Z,30.80
2023-02-12T04:18:09.065Z,32.80
2023-02-12T04:19:09.031Z,31.20
2023-02-12T04:20:09.012Z,32.60
2023-02-12T04:21:08.981Z,32.10
2023-02-12T04:22:08.956Z,32.80
2023-02-12T04:23:08.925Z,31.70
2023-02-12T04:24:08.906Z,32.80
2023-02-12T04:25:08.876Z,32.60
2023-02-12T04:26:08.854Z,32.00
2023-02-12T04:27:08.827Z,30.80
2023-02-12T04:28:08.854Z,32.50
2023-02-12T04:29:08.798Z,32.30
2023-02-12T04:30:08.751Z,31.70
2023-02-12T04:31:08.881Z,32.90
2023-02-12T04:32:08.699Z,32.00
2023-02-12T04:33:08.679Z,31.10
2023-02-12T04:34:08.663Z,32.40
2023-02-12T04:35:08.627Z,31.30
2023-02-12T04:36:08.606Z,30.90
2023-02-12T04:37:08.568Z,31.50
2023-02-12T04:38:08.545Z,32.10
2023-02-12T04:39:08.523Z,32.50
2023-02-12T04:40:08.501Z,30.30
2023-02-12T04:41:08.470Z,32.00
2023-02-12T04:42:08.445Z,32.10
2023-02-12T04:43:08.414Z,31.00
2023-02-12T04:44:08.398Z,32.40
2023-02-12T04:45:08.389Z,31.60
2023-02-12T04:46:08.396Z,33.10
2023-02-12T04:47:08.318Z,32.50
2023-02-12T04:48:08.291Z,31.80
2023-02-12T04:49:08.261Z,31.40
2023-02-12T04:50:08.253Z,30.20
2023-02-12T04:51:08.209Z,31.70
2023-02-12T04:52:08.188Z,29.70
2023-02-12T04:53:08.161Z,33.00
2023-02-12T04:54:08.136Z,32.00
2023-02-12T04:55:08.108Z,29.70
2023-02-12T04:56:08.085Z,31.60
2023-02-12T04:57:08.064Z,32.40
2023-02-12T04:58:08.033Z,31.60
2023-02-12T04:59:08.009Z,31.40
2023-02-12T05:00:07.986Z,31.80
2023-02-12T05:01:08.041Z,31.20
2023-02-12T05:02:07.932Z,31.50
2023-02-12T05:03:07.914Z,32.40
2023-02-12T05:04:07.892Z,32.40
2023-02-12T05:05:07.873Z,30.70
2023-02-12T05:06:07.826Z,31.70
2023-02-12T05:07:07.802Z,32.90
2023-02-12T05:08:07.777Z,31.50
2023-02-12T05:09:07.747Z,31.10
2023-02-12T05:10:07.729Z,31.70
2023-02-12T05:11:07.696Z,31.00
2023-02-12T05:12:07.668Z,31.70
2023-02-12T05:13:07.636Z,32.80
2023-02-12T05:14:07.621Z,32.00
2023-02-12T05:15:07.589Z,31.10
2023-02-12T05:16:07.674Z,32.00
2023-02-12T05:17:07.563Z,30.60
2023-02-12T05:18:07.515Z,32.50
2023-02-12T05:19:07.484Z,32.80
2023-02-12T05:20:07.468Z,32.60
2023-02-12T05:21:07.433Z,32.20
2023-02-12T05:22:07.412Z,32.50
2023-02-12T05:23:07.383Z,32.50
2023-02-12T05:24:07.360Z,33.60
2023-02-12T05:25:07.332Z,30.70
2023-02-12T05:26:07.305Z,31.50
2023-02-12T05:27:07.281Z,32.50
2023-02-12T05:28:07.307Z,32.00
2023-02-12T05:29:07.225Z,32.60
2023-02-12T05:30:07.210Z,31.50
2023-02-12T05:31:07.368Z,31.00
2023-02-12T05:32:07.288Z,33.80
2023-02-12T05:33:07.175Z,31.80
2023-02-12T05:34:07.097Z,32.40
2023-02-12T05:35:07.073Z,34.10
2023-02-12T05:36:07.050Z,32.00
2023-02-12T05:37:07.028Z,32.90
2023-02-12T05:38:06.995Z,32.40
2023-02-12T05:39:06.971Z,33.20
2023-02-12T05:40:06.940Z,32.00
2023-02-12T05:41:06.918Z,32.00
2023-02-12T05:42:06.886Z,32.70
2023-02-12T05:43:06.874Z,32.40
2023-02-12T05:44:06.837Z,32.70
2023-02-12T05:45:06.811Z,31.20
2023-02-12T05:46:06.857Z,32.00
2023-02-12T05:47:06.774Z,32.00
2023-02-12T05:48:06.729Z,32.60
2023-02-12T05:49:06.735Z,33.40
2023-02-12T05:50:06.695Z,31.60
2023-02-12T05:51:06.666Z,32.10
2023-02-12T05:52:06.625Z,31.30
2023-02-12T05:53:06.607Z,32.20
2023-02-12T05:54:06.575Z,34.10
2023-02-12T05:55:06.563Z,32.20
2023-02-12T05:56:06.521Z,32.20
2023-02-12T05:57:06.551Z,32.10
2023-02-12T05:58:06.472Z,31.30
2023-02-12T05:59:06.448Z,32.00
2023-02-12T06:00:06.423Z,33.00
2023-02-12T06:01:06.396Z,31.00
2023-02-12T06:02:06.366Z,32.70
2023-02-12T06:03:06.343Z,32.60
2023-02-12T06:04:06.375Z,31.20
2023-02-12T06:05:06.317Z,32.00
2023-02-12T06:06:06.261Z,32.70
2023-02-12T06:07:06.242Z,31.60
2023-02-12T06:08:06.210Z,34.50
2023-02-12T06:09:06.189Z,32.20
2023-02-12T06:10:06.160Z,32.30
2023-02-12T06:11:06.132Z,32.50
2023-02-12T06:12:06.108Z,32.30
2023-02-12T06:13:06.082Z,33.60
2023-02-12T06:14:06.057Z,32.20
2023-02-12T06:15:06.037Z,31.90
2023-02-12T06:16:06.100Z,32.90
2023-02-12T06:17:05.983Z,35.10
2023-02-12T06:18:05.955Z,33.20
2023-02-12T06:19:05.940Z,33.00
2023-02-12T06:20:05.916Z,34.60
2023-02-12T06:21:05.897Z,33.10
2023-02-12T06:22:05.843Z,35.00
2023-02-12T06:23:05.819Z,34.80
2023-02-12T06:24:05.804Z,35.40
2023-02-12T06:25:05.774Z,32.90
2023-02-12T06:26:05.747Z,34.20
2023-02-12T06:27:05.792Z,33.30
2023-02-12T06:28:05.800Z,32.90
2023-02-12T06:29:05.673Z,34.90
2023-02-12T06:30:05.642Z,34.50
2023-02-12T06:31:05.757Z,33.70
2023-02-12T06:32:05.774Z,33.80
2023-02-12T06:33:05.585Z,35.00
2023-02-12T06:34:05.553Z,33.70
2023-02-12T06:35:05.512Z,35.50
2023-02-12T06:36:05.485Z,33.50
2023-02-12T06:37:05.483Z,35.10
2023-02-12T06:38:05.463Z,34.30
2023-02-12T06:39:05.415Z,34.80
2023-02-12T06:40:05.385Z,34.50
2023-02-12T06:41:05.357Z,34.00
2023-02-12T06:42:05.334Z,33.60
2023-02-12T06:43:05.316Z,35.10
2023-02-12T06:44:05.277Z,35.50
2023-02-12T06:45:05.261Z,33.90
2023-02-12T06:46:05.223Z,34.70
2023-02-12T06:47:05.209Z,33.10
2023-02-12T06:48:05.181Z,34.30
2023-02-12T06:49:05.152Z,35.40
2023-02-12T06:50:05.134Z,34.20
2023-02-12T06:51:05.107Z,35.70
2023-02-12T06:52:05.071Z,34.80
2023-02-12T06:53:05.089Z,35.10
2023-02-12T06:54:05.024Z,32.90
2023-02-12T06:55:04.993Z,34.90
2023-02-12T06:56:04.968Z,35.60
2023-02-12T06:57:04.947Z,34.60
2023-02-12T06:58:04.918Z,35.50
2023-02-12T06:59:04.897Z,34.90
2023-02-12T07:00:04.866Z,36.30
2023-02-12T07:01:04.889Z,35.10
2023-02-12T07:02:04.808Z,34.70
2023-02-12T07:03:04.787Z,35.90
2023-02-12T07:04:04.839Z,34.80
2023-02-12T07:05:04.731Z,34.70
2023-02-12T07:06:04.704Z,35.90
2023-02-12T07:07:04.678Z,36.30
2023-02-12T07:08:04.652Z,34.30
2023-02-12T07:09:04.653Z,35.40
2023-02-12T07:10:04.602Z,36.10
2023-02-12T07:11:04.582Z,35.00
2023-02-12T07:12:04.550Z,35.70
2023-02-12T07:13:04.525Z,36.70
2023-02-12T07:14:04.521Z,34.70
2023-02-12T07:15:04.475Z,36.00
2023-02-12T07:16:04.473Z,34.40
2023-02-12T07:17:04.434Z,36.80
2023-02-12T07:18:04.395Z,33.70
2023-02-12T07:19:04.372Z,34.60
2023-02-12T07:20:04.348Z,36.00
2023-02-12T07:21:04.320Z,36.60
2023-02-12T07:22:04.290Z,33.40
2023-02-12T07:23:04.271Z,36.00
2023-02-12T07:24:04.235Z,35.00
2023-02-12T07:25:04.237Z,35.20
2023-02-12T07:26:04.186Z,34.70
2023-02-12T07:27:04.161Z,35.50
2023-02-12T07:28:04.196Z,36.00
2023-02-12T07:29:04.108Z,34.20
2023-02-12T07:30:04.081Z,34.90
2023-02-12T07:31:04.243Z,36.10
2023-02-12T07:32:04.118Z,36.50
2023-02-12T07:33:04.023Z,35.60
2023-02-12T07:34:03.977Z,34.70
2023-02-12T07:35:03.955Z,35.50
2023-02-12T07:36:03.928Z,36.40
2023-02-12T07:37:03.902Z,34.30
2023-02-12T07:38:03.872Z,36.00
2023-02-12T07:39:03.858Z,36.10
2023-02-12T07:40:03.825Z,35.60
2023-02-12T07:41:03.835Z,36.10
2023-02-12T07:42:03.775Z,36.50
2023-02-12T07:43:03.744Z,37.10
2023-02-12T07:44:03.716Z,36.10
2023-02-12T07:45:03.691Z,36.30
2023-02-12T07:46:03.763Z,36.00
2023-02-12T07:47:03.644Z,36.90
2023-02-12T07:48:03.614Z,37.20
2023-02-12T07:49:03.592Z,36.10
2023-02-12T07:50:03.564Z,36.80
2023-02-12T07:51:03.546Z,36.60
2023-02-12T07:52:03.505Z,37.10
2023-02-12T07:53:03.483Z,35.70
2023-02-12T07:54:03.456Z,37.00
2023-02-12T07:55:03.429Z,36.20
2023-02-12T07:56:03.404Z,34.80
2023-02-12T07:57:03.412Z,36.10
2023-02-12T07:58:03.347Z,38.10
2023-02-12T07:59:03.327Z,36.90
2023-02-12T08:00:03.304Z,37.60
2023-02-12T08:01:03.281Z,37.20
2023-02-12T08:02:03.292Z,36.90
2023-02-12T08:03:03.232Z,36.90
2023-02-12T08:04:03.214Z,37.20
2023-02-12T08:05:03.173Z,35.60
2023-02-12T08:06:03.139Z,37.50
2023-02-12T08:07:03.144Z,38.00
2023-02-12T08:08:03.092Z,36.80
2023-02-12T08:09:03.065Z,36.80
2023-02-12T08:10:03.062Z,38.00
2023-02-12T08:11:03.018Z,41.70
2023-02-12T08:12:02.995Z,41.90
2023-02-12T08:13:02.986Z,47.10
2023-02-12T08:14:02.932Z,43.30
2023-02-12T08:15:02.929Z,40.00
2023-02-12T08:16:02.956Z,37.50
2023-02-12T08:17:02.869Z,37.40
2023-02-12T08:18:02.830Z,37.90
2023-02-12T08:19:16.123Z,37.10
2023-02-12T08:20:02.787Z,35.90
2023-02-12T08:21:02.753Z,38.90
2023-02-12T08:22:02.740Z,43.70
2023-02-12T08:23:02.707Z,39.60
2023-02-12T08:24:02.681Z,42.40
2023-02-12T08:25:02.651Z,43.10
2023-02-12T08:26:02.625Z,38.20
2023-02-12T08:27:02.606Z,36.80
2023-02-12T08:28:02.643Z,36.50
2023-02-12T08:29:02.578Z,38.10
2023-02-12T08:30:02.521Z,41.50
2023-02-12T08:31:02.591Z,38.30
2023-02-12T08:32:02.622Z,37.30
2023-02-12T08:33:02.441Z,38.10
2023-02-12T08:34:02.419Z,39.10
2023-02-12T08:35:02.393Z,39.00
2023-02-12T08:36:02.586Z,41.70
2023-02-12T08:37:02.352Z,38.50
2023-02-12T08:38:02.336Z,36.40
2023-02-12T08:39:02.292Z,36.60
2023-02-12T08:40:02.259Z,37.90
2023-02-12T08:41:02.325Z,40.20
2023-02-12T08:42:02.215Z,39.60
2023-02-12T08:43:02.187Z,38.20
2023-02-12T08:44:02.158Z,36.30
2023-02-12T08:45:02.152Z,36.50
2023-02-12T08:46:02.151Z,37.00
2023-02-12T08:47:02.080Z,36.40
2023-02-12T08:48:02.055Z,36.40
2023-02-12T08:49:02.025Z,37.70
2023-02-12T08:50:01.994Z,36.20
2023-02-12T08:51:01.997Z,36.30
2023-02-12T08:52:02.037Z,36.40
2023-02-12T08:53:01.921Z,35.80
2023-02-12T08:54:01.914Z,34.50
2023-02-12T08:55:01.865Z,35.70
2023-02-12T08:56:01.841Z,36.80
2023-02-12T08:57:01.814Z,36.40
2023-02-12T08:58:01.788Z,33.90
2023-02-12T08:59:01.761Z,34.00
2023-02-12T09:00:01.738Z,35.80
2023-02-12T09:01:01.762Z,33.90
2023-02-12T09:02:01.734Z,35.30
2023-02-12T09:03:01.675Z,33.90
2023-02-12T09:04:01.637Z,32.90
2023-02-12T09:05:01.611Z,33.60
2023-02-12T09:06:01.576Z,33.30
2023-02-12T09:07:01.553Z,32.40
2023-02-12T09:08:01.528Z,33.10
2023-02-12T09:09:01.500Z,32.50
2023-02-12T09:10:01.481Z,33.20
2023-02-12T09:11:01.460Z,31.10
2023-02-12T09:12:01.422Z,31.10
2023-02-12T09:13:01.403Z,30.90
2023-02-12T09:14:01.375Z,31.20
2023-02-12T09:15:01.388Z,29.80
2023-02-12T09:16:01.353Z,31.00
2023-02-12T09:17:01.428Z,30.30
2023-02-12T09:18:01.287Z,30.80
2023-02-12T09:19:01.247Z,30.40
2023-02-12T09:20:01.214Z,31.30
2023-02-12T09:21:01.211Z,29.80
2023-02-12T09:22:01.164Z,29.80
2023-02-12T09:23:01.143Z,28.20
2023-02-12T09:24:01.115Z,30.00
2023-02-12T09:25:01.097Z,29.80
2023-02-12T09:26:01.066Z,28.90
2023-02-12T09:27:01.045Z,27.50
2023-02-12T09:28:01.055Z,28.40
2023-02-12T09:29:00.987Z,29.70
2023-02-12T09:30:00.972Z,30.20
2023-02-12T09:31:01.073Z,28.80
2023-02-12T09:32:00.973Z,30.40
2023-02-12T09:33:00.910Z,30.00
2023-02-12T09:34:00.858Z,29.40
2023-02-12T09:35:00.841Z,28.20
2023-02-12T09:36:00.807Z,29.10
2023-02-12T09:37:00.785Z,29.40
2023-02-12T09:38:00.758Z,28.60
2023-02-12T09:39:00.731Z,29.30
2023-02-12T09:40:00.719Z,28.50
2023-02-12T09:41:00.682Z,27.80
2023-02-12T09:42:00.677Z,28.00
2023-02-12T09:43:00.630Z,27.50
2023-02-12T09:44:00.598Z,28.50
2023-02-12T09:45:00.574Z,28.70
2023-02-12T09:46:00.869Z,28.50
2023-02-12T09:47:00.530Z,27.00
2023-02-12T09:48:00.504Z,27.10
2023-02-12T09:49:00.505Z,26.90
2023-02-12T09:50:00.446Z,27.30
2023-02-12T09:51:00.423Z,26.50
2023-02-12T09:52:00.403Z,26.80
2023-02-12T09:53:00.377Z,25.70
2023-02-12T09:54:00.344Z,25.50
2023-02-12T09:55:00.326Z,25.60
2023-02-12T09:56:00.291Z,24.80
2023-02-12T09:57:00.267Z,26.00
2023-02-12T09:58:00.248Z,25.30
2023-02-12T09:59:00.227Z,25.50
2023-02-12T10:00:00.211Z,25.50
2023-02-12T10:01:00.171Z,25.80
2023-02-12T10:02:00.138Z,24.00
2023-02-12T10:03:00.116Z,24.90
2023-02-12T10:04:00.216Z,25.70
2023-02-12T10:05:02.156Z,24.40
2023-02-12T10:06:00.083Z,25.60
2023-02-12T10:07:00.025Z,24.80
2023-02-12T10:07:59.994Z,25.40
2023-02-12T10:08:59.996Z,25.50
2023-02-12T10:09:59.939Z,24.70
2023-02-12T10:10:59.910Z,24.90
2023-02-12T10:11:59.893Z,24.70
2023-02-12T10:12:59.863Z,27.10
2023-02-12T10:13:59.849Z,25.20
2023-02-12T10:14:59.817Z,24.60
2023-02-12T10:16:00.028Z,23.70
2023-02-12T10:16:59.770Z,23.90
2023-02-12T10:17:59.747Z,22.40
2023-02-12T10:18:59.713Z,24.60
2023-02-12T10:19:59.687Z,22.40
2023-02-12T10:20:59.948Z,20.60
2023-02-12T10:21:59.653Z,20.40
2023-02-12T10:22:59.624Z,19.40
2023-02-12T10:23:59.601Z,19.20
2023-02-12T10:24:59.559Z,19.20
2023-02-12T10:25:59.876Z,20.20
2023-02-12T10:26:59.521Z,20.50
2023-02-12T10:27:59.481Z,19.20
2023-02-12T10:28:59.450Z,19.00
2023-02-12T10:29:59.437Z,18.30
2023-02-12T10:30:59.533Z,19.20
2023-02-12T10:31:59.388Z,18.80
2023-02-12T10:32:59.350Z,19.00
2023-02-12T10:33:59.324Z,18.40
2023-02-12T10:34:59.295Z,17.90
2023-02-12T10:35:59.274Z,17.70
2023-02-12T10:36:59.275Z,17.30
2023-02-12T10:37:59.218Z,16.90
2023-02-12T10:38:59.198Z,16.60
2023-02-12T10:39:59.169Z,17.10
2023-02-12T10:40:59.137Z,17.30
2023-02-12T10:41:59.118Z,18.50
2023-02-12T10:42:59.092Z,15.70
2023-02-12T10:43:59.067Z,17.30
2023-02-12T10:44:59.037Z,17.40
2023-02-12T10:45:59.015Z,16.80
2023-02-12T10:46:58.995Z,16.40
2023-02-12T10:47:58.965Z,15.60
2023-02-12T10:48:59.064Z,16.10
2023-02-12T10:49:58.915Z,13.50
2023-02-12T10:50:58.894Z,13.20
2023-02-12T10:51:58.860Z,13.60
2023-02-12T10:52:58.857Z,13.10
2023-02-12T10:53:58.808Z,13.00
2023-02-12T10:54:58.777Z,14.00
2023-02-12T10:55:58.751Z,13.60
2023-02-12T10:56:58.730Z,13.90
2023-02-12T10:57:58.718Z,13.70
2023-02-12T10:58:58.681Z,14.00
2023-02-12T10:59:58.654Z,13.90
2023-02-12T11:00:58.639Z,13.10
2023-02-12T11:01:58.644Z,12.60
2023-02-12T11:02:58.575Z,12.30
2023-02-12T11:03:58.563Z,11.70
2023-02-12T11:04:58.529Z,11.80
2023-02-12T11:05:58.796Z,10.30
2023-02-12T11:06:58.487Z,9.90
2023-02-12T11:07:58.464Z,10.00
2023-02-12T11:08:58.448Z,10.30
2023-02-12T11:09:58.404Z,9.50
2023-02-12T11:10:58.376Z,9.80
2023-02-12T11:11:58.352Z,9.70
2023-02-12T11:12:58.333Z,10.20
2023-02-12T11:13:58.300Z,9.60
2023-02-12T11:14:58.274Z,9.60
2023-02-12T11:15:58.884Z,10.80
2023-02-12T11:16:58.222Z,9.70
2023-02-12T11:17:58.194Z,11.00
2023-02-12T11:18:58.177Z,10.50
2023-02-12T11:19:58.149Z,10.30
2023-02-12T11:20:58.117Z,10.00
2023-02-12T11:21:58.094Z,10.10
2023-02-12T11:22:58.072Z,10.30
2023-02-12T11:23:58.050Z,10.40
2023-02-12T11:24:58.041Z,10.40
2023-02-12T11:25:58.430Z,10.80
2023-02-12T11:26:57.968Z,9.90
2023-02-12T11:27:58.100Z,10.20
2023-02-12T11:28:58.164Z,11.10
2023-02-12T11:29:57.906Z,11.10
2023-02-12T11:30:57.943Z,10.60
2023-02-12T11:31:57.868Z,10.30
2023-02-12T11:32:57.809Z,10.90
2023-02-12T11:33:57.788Z,10.70
2023-02-12T11:34:57.760Z,9.00
2023-02-12T11:35:57.735Z,10.70
2023-02-12T11:36:57.710Z,10.10
2023-02-12T11:37:57.752Z,10.20
2023-02-12T11:38:57.659Z,10.10
2023-02-12T11:39:57.637Z,11.80
2023-02-12T11:40:58.082Z,11.00
2023-02-12T11:41:57.585Z,10.60
2023-02-12T11:42:57.553Z,10.80
2023-02-12T11:43:57.533Z,10.20
2023-02-12T11:44:57.514Z,11.50
2023-02-12T11:45:57.484Z,10.50
2023-02-12T11:46:57.602Z,11.80
2023-02-12T11:47:57.436Z,10.10
2023-02-12T11:48:57.416Z,10.40
2023-02-12T11:49:57.383Z,9.60
2023-02-12T11:50:57.363Z,9.90
2023-02-12T11:51:57.337Z,10.00
2023-02-12T11:52:57.309Z,9.90
2023-02-12T11:53:57.298Z,10.50
2023-02-12T11:54:57.287Z,10.40
2023-02-12T11:55:57.230Z,10.50
2023-02-12T11:56:57.245Z,10.80
2023-02-12T11:57:57.180Z,10.60
2023-02-12T11:58:57.148Z,11.90
2023-02-12T11:59:57.124Z,10.20
2023-02-12T12:00:57.094Z,9.60
2023-02-12T12:01:57.120Z,10.00
2023-02-12T12:02:57.087Z,9.80
2023-02-12T12:03:57.040Z,10.50
2023-02-12T12:04:56.999Z,11.40
2023-02-12T12:05:57.394Z,11.00
2023-02-12T12:06:56.945Z,10.20
2023-02-12T12:07:56.922Z,10.10
2023-02-12T12:08:56.888Z,10.30
2023-02-12T12:09:56.868Z,10.50
2023-02-12T12:10:56.847Z,11.10
2023-02-12T12:11:56.826Z,12.00
2023-02-12T12:12:56.818Z,10.20
2023-02-12T12:13:56.768Z,10.70
2023-02-12T12:14:56.743Z,10.50
2023-02-12T12:15:57.188Z,10.40
2023-02-12T12:16:56.699Z,11.20
2023-02-12T12:17:56.666Z,10.20
2023-02-12T12:18:56.639Z,10.10
2023-02-12T12:19:56.621Z,9.60
2023-02-12T12:20:56.601Z,10.00
2023-02-12T12:21:56.568Z,9.90
2023-02-12T12:22:56.536Z,9.40
2023-02-12T12:23:56.518Z,9.50
2023-02-12T12:24:56.493Z,7.90
2023-02-12T12:25:56.750Z,7.50
2023-02-12T12:26:56.448Z,7.80
2023-02-12T12:27:56.419Z,8.00
2023-02-12T12:28:56.410Z,7.50
2023-02-12T12:29:56.367Z,8.10
2023-02-12T12:30:56.426Z,8.20
2023-02-12T12:31:56.376Z,7.60
2023-02-12T12:32:56.293Z,7.50
2023-02-12T12:33:56.274Z,7.60
2023-02-12T12:34:56.238Z,7.90
2023-02-12T12:35:56.516Z,8.70
2023-02-12T12:36:56.201Z,7.60
2023-02-12T12:37:56.191Z,8.20
2023-02-12T12:38:56.145Z,8.50
2023-02-12T12:39:56.136Z,8.20
2023-02-12T12:40:56.089Z,8.00
2023-02-12T12:41:56.070Z,7.20
2023-02-12T12:42:56.039Z,7.00
2023-02-12T12:43:56.012Z,7.60
2023-02-12T12:44:56.011Z,8.00
2023-02-12T12:45:56.338Z,7.40
2023-02-12T12:46:55.941Z,7.10
2023-02-12T12:47:55.918Z,6.60
2023-02-12T12:48:55.886Z,6.80
2023-02-12T12:49:55.868Z,7.50
2023-02-12T12:50:55.838Z,8.40
2023-02-12T12:51:55.820Z,8.40
2023-02-12T12:52:55.790Z,8.10
2023-02-12T12:53:55.766Z,7.40